Terminal Aerodrome Forecast
Issued by NWS

Current Version | Previous Version | Text Only | Print | Product List | Glossary Off
Versions: 1 2 3 4 5 6 7 8 9 10 11 12 13 14 15 16 17

000
FTUS41 KILN 110540
TAFLCK
TAF
KLCK 110540Z 1106/1206 28006KT P6SM OVC035
      TEMPO 1107/1111 BKN025
     FM111300 19008KT P6SM BKN080 OVC150
     FM120000 15007KT P6SM BKN100=

USA.gov is the U.S. government's official web portal to all federal, state and local government web resources and services.